createdAt,value
2022-08-17T00:02:05.837Z,97926.91
2022-08-17T00:04:51.560Z,97923.09
2022-08-17T00:07:18.173Z,97929.53
2022-08-17T00:09:44.913Z,97926.63
2022-08-17T00:12:42.971Z,97935.22
2022-08-17T00:14:58.082Z,97941.78
2022-08-17T00:17:24.726Z,97934.88
2022-08-17T00:19:51.293Z,97936.16
2022-08-17T00:22:35.027Z,97937.22
2022-08-17T00:25:07.445Z,97931.31
2022-08-17T00:27:35.320Z,97937.44
2022-08-17T00:30:02.111Z,97936.06
2022-08-17T00:33:23.147Z,97936.72
2022-08-17T00:35:18.315Z,97935.44
2022-08-17T00:37:45.010Z,97934.88
2022-08-17T00:40:14.605Z,97921.69
2022-08-17T00:42:43.454Z,97917.66
2022-08-17T00:45:12.946Z,97919.28
2022-08-17T00:47:40.023Z,97919.13
2022-08-17T00:50:10.779Z,97921.69
2022-08-17T00:52:43.567Z,97923.59
2022-08-17T00:55:11.115Z,97920.88
2022-08-17T00:57:43.462Z,97917.59
2022-08-17T01:00:14.097Z,97917.69
2022-08-17T01:02:43.738Z,97915.84
2022-08-17T01:05:14.900Z,97920.44
2022-08-17T01:07:42.350Z,97922.84
2022-08-17T01:10:58.882Z,97918.03
2022-08-17T01:13:00.790Z,97922.47
2022-08-17T01:15:27.496Z,97928.09
2022-08-17T01:17:54.277Z,97928.88
2022-08-17T01:20:20.915Z,97925.38
2022-08-17T01:22:47.654Z,97925.88
2022-08-17T01:25:14.819Z,97932.63
2022-08-17T01:27:42.922Z,97937.97
2022-08-17T01:30:56.802Z,97934.28
2022-08-17T01:32:59.532Z,97944.69
2022-08-17T01:35:26.256Z,97939.56
2022-08-17T01:37:53.080Z,97943.56
2022-08-17T01:40:38.943Z,97942.47
2022-08-17T01:43:15.009Z,97945.91
2022-08-17T01:45:46.544Z,97945.88
2022-08-17T01:48:13.923Z,97955.25
2022-08-17T01:50:44.308Z,97945.44
2022-08-17T01:53:15.679Z,97942.97
2022-08-17T01:55:49.235Z,97946.72
2022-08-17T01:58:16.063Z,97949.94
2022-08-17T02:00:59.474Z,97945.72
2022-08-17T02:03:28.324Z,97951.88
2022-08-17T02:05:58.691Z,97953.75
2022-08-17T02:08:39.130Z,97946.00
2022-08-17T02:11:16.975Z,97945.47
2022-08-17T02:13:45.813Z,97943.34
2022-08-17T02:16:13.243Z,97934.53
2022-08-17T02:18:40.053Z,97938.09
2022-08-17T02:21:07.640Z,97936.28
2022-08-17T02:23:37.901Z,97934.38
2022-08-17T02:26:05.348Z,97933.91
2022-08-17T02:28:31.966Z,97932.84
2022-08-17T02:31:05.764Z,97933.63
2022-08-17T02:33:43.012Z,97935.78
2022-08-17T02:36:12.394Z,97928.06
2022-08-17T02:38:39.877Z,97930.47
2022-08-17T02:41:06.920Z,97931.81
2022-08-17T02:43:33.662Z,97938.47
2022-08-17T02:46:00.420Z,97928.28
2022-08-17T02:48:30.472Z,97927.50
2022-08-17T02:50:58.094Z,97924.56
2022-08-17T02:53:25.702Z,97921.09
2022-08-17T02:55:53.219Z,97920.81
2022-08-17T02:58:34.278Z,97922.94
2022-08-17T03:01:04.257Z,97916.03
2022-08-17T03:03:30.878Z,97925.91
2022-08-17T03:05:57.929Z,97921.91
2022-08-17T03:08:25.522Z,97923.22
2022-08-17T03:10:52.758Z,97920.88
2022-08-17T03:13:20.146Z,97918.47
2022-08-17T03:15:48.072Z,97923.56
2022-08-17T03:18:24.874Z,97926.25
2022-08-17T03:20:55.113Z,97932.63
2022-08-17T03:23:24.044Z,97929.16
2022-08-17T03:25:52.852Z,97935.03
2022-08-17T03:28:20.401Z,97935.03
2022-08-17T03:30:47.154Z,97925.16
2022-08-17T03:33:14.221Z,97922.25
2022-08-17T03:35:41.813Z,97921.97
2022-08-17T03:38:11.546Z,97917.69
2022-08-17T03:40:57.565Z,97918.25
2022-08-17T03:43:25.612Z,97919.03
2022-08-17T03:46:10.765Z,97918.25
2022-08-17T03:49:09.692Z,97919.84
2022-08-17T03:51:51.517Z,97913.41
2022-08-17T03:54:33.546Z,97915.03
2022-08-17T03:57:06.162Z,97917.69
2022-08-17T03:59:33.869Z,97922.47
2022-08-17T04:02:04.417Z,97923.56
2022-08-17T04:04:31.143Z,97923.31
2022-08-17T04:06:58.722Z,97924.88
2022-08-17T04:09:25.392Z,97932.63
2022-08-17T04:11:53.245Z,97930.75
2022-08-17T04:14:20.401Z,97921.44
2022-08-17T04:16:47.065Z,97923.81
2022-08-17T04:19:13.745Z,97924.63
2022-08-17T04:21:40.505Z,97928.88
2022-08-17T04:24:07.764Z,97929.66
2022-08-17T04:26:53.175Z,97934.75
2022-08-17T04:29:21.411Z,97934.47
2022-08-17T04:31:48.186Z,97926.25
2022-08-17T04:34:14.805Z,97929.69
2022-08-17T04:36:50.262Z,97922.22
2022-08-17T04:39:17.253Z,97927.59
2022-08-17T04:41:59.241Z,97931.88
2022-08-17T04:44:27.243Z,97932.09
2022-08-17T04:47:04.787Z,97940.09
2022-08-17T04:49:32.612Z,97947.56
2022-08-17T04:52:04.402Z,97944.91
2022-08-17T04:54:31.471Z,97949.41
2022-08-17T04:56:58.262Z,97955.03
2022-08-17T04:59:24.924Z,97949.72
2022-08-17T05:01:52.318Z,97952.91
2022-08-17T05:04:35.141Z,97953.19
2022-08-17T05:07:03.204Z,97952.66
2022-08-17T05:09:29.870Z,97944.94
2022-08-17T05:12:01.237Z,97947.34
2022-08-17T05:14:32.913Z,97944.38
2022-08-17T05:17:00.589Z,97943.06
2022-08-17T05:19:27.894Z,97941.72
2022-08-17T05:21:54.529Z,97944.38
2022-08-17T05:24:40.722Z,97945.94
2022-08-17T05:27:07.780Z,97941.09
2022-08-17T05:29:35.391Z,97956.31
2022-08-17T05:32:38.224Z,97956.00
2022-08-17T05:35:00.009Z,97957.53
2022-08-17T05:37:26.666Z,97951.13
2022-08-17T05:39:54.500Z,97951.09
2022-08-17T05:42:21.683Z,97946.53
2022-08-17T05:44:48.547Z,97944.38
2022-08-17T05:47:15.252Z,97933.38
2022-08-17T05:49:41.956Z,97938.66
2022-08-17T05:52:26.785Z,97931.91
2022-08-17T05:55:09.616Z,97938.97
2022-08-17T05:57:59.995Z,97934.88
2022-08-17T06:00:36.308Z,97941.44
2022-08-17T06:03:18.719Z,97945.56
2022-08-17T06:06:09.602Z,97937.47
2022-08-17T06:08:51.708Z,97934.13
2022-08-17T06:11:20.049Z,97940.22
2022-08-17T06:14:22.578Z,97939.31
2022-08-17T06:16:56.028Z,97937.09
2022-08-17T06:19:44.305Z,97947.94
2022-08-17T06:22:16.551Z,97943.91
2022-08-17T06:24:51.669Z,97945.91
2022-08-17T06:27:38.704Z,97936.63
2022-08-17T06:30:12.041Z,97936.31
2022-08-17T06:32:42.472Z,97936.66
2022-08-17T06:35:12.516Z,97933.03
2022-08-17T06:38:01.429Z,97933.03
2022-08-17T06:40:52.055Z,97932.16
2022-08-17T06:43:34.075Z,97928.28
2022-08-17T06:46:15.524Z,97929.22
2022-08-17T06:49:07.899Z,97918.94
2022-08-17T06:51:41.239Z,97926.91
2022-08-17T06:54:11.188Z,97917.09
2022-08-17T06:56:53.569Z,97923.28
2022-08-17T06:59:54.151Z,97921.00
2022-08-17T07:02:52.729Z,97928.84
2022-08-17T07:05:24.706Z,97921.06
2022-08-17T07:08:01.907Z,97924.19
2022-08-17T07:10:36.070Z,97918.69
2022-08-17T07:13:20.489Z,97922.25
2022-08-17T07:15:51.811Z,97929.91
2022-08-17T07:18:24.162Z,97927.28
2022-08-17T07:20:59.920Z,97927.06
2022-08-17T07:23:38.655Z,97920.53
2022-08-17T07:26:07.936Z,97916.78
2022-08-17T07:28:36.056Z,97918.06
2022-08-17T07:31:04.847Z,97915.88
2022-08-17T07:33:34.031Z,97914.75
2022-08-17T07:36:01.622Z,97914.50
2022-08-17T07:38:31.233Z,97911.38
2022-08-17T07:40:58.102Z,97906.50
2022-08-17T07:43:29.445Z,97914.44
2022-08-17T07:46:17.708Z,97916.03
2022-08-17T07:48:49.688Z,97914.47
2022-08-17T07:51:26.313Z,97919.94
2022-08-17T07:54:13.186Z,97913.81
2022-08-17T07:56:42.966Z,97916.69
2022-08-17T07:59:14.494Z,97918.56
2022-08-17T08:01:45.524Z,97920.34
2022-08-17T08:07:16.429Z,97910.81
2022-08-17T08:09:46.570Z,97918.25
2022-08-17T08:12:33.517Z,97903.75
2022-08-17T08:15:07.738Z,97908.03
2022-08-17T08:17:45.294Z,97905.63
2022-08-17T08:20:51.185Z,97908.88
2022-08-17T08:23:34.057Z,97915.13
2022-08-17T08:26:01.662Z,97916.78
2022-08-17T08:29:03.741Z,97910.97
2022-08-17T08:32:05.534Z,97912.75
2022-08-17T08:35:01.759Z,97908.19
2022-08-17T08:37:55.734Z,97910.63
2022-08-17T08:40:38.729Z,97907.44
2022-08-17T08:43:40.553Z,97913.69
2022-08-17T08:46:35.401Z,97913.53
2022-08-17T08:50:02.070Z,97919.19
2022-08-17T08:52:32.366Z,97911.91
2022-08-17T08:55:12.398Z,97916.69
2022-08-17T08:57:47.928Z,97909.19
2022-08-17T09:00:25.281Z,97902.78
2022-08-17T09:03:49.711Z,97904.63
2022-08-17T09:06:39.017Z,97894.47
2022-08-17T09:09:35.907Z,97899.06
2022-08-17T09:12:25.430Z,97902.88
2022-08-17T09:15:01.429Z,97902.69
2022-08-17T09:17:42.140Z,97902.97
2022-08-17T09:20:10.150Z,97894.94
2022-08-17T09:22:48.823Z,97897.75
2022-08-17T09:25:23.567Z,97895.50
2022-08-17T09:27:57.358Z,97898.44
2022-08-17T09:30:36.228Z,97899.41
2022-08-17T09:33:08.715Z,97895.94
2022-08-17T09:35:44.575Z,97896.91
2022-08-17T09:38:33.247Z,97896.63
2022-08-17T09:41:06.403Z,97886.09
2022-08-17T09:43:54.178Z,97891.03
2022-08-17T09:46:39.330Z,97893.28
2022-08-17T09:49:24.648Z,97884.00
2022-08-17T09:51:58.678Z,97891.91
2022-08-17T09:54:39.102Z,97887.06
2022-08-17T09:57:34.959Z,97885.09
2022-08-17T10:00:13.332Z,97879.25
2022-08-17T10:02:51.237Z,97879.66
2022-08-17T10:05:43.239Z,97878.63
2022-08-17T10:08:30.104Z,97869.03
2022-08-17T10:11:08.095Z,97860.09
2022-08-17T10:13:41.342Z,97861.75
2022-08-17T10:16:23.187Z,97862.78
2022-08-17T10:19:02.776Z,97860.91
2022-08-17T10:21:48.606Z,97849.78
2022-08-17T10:25:22.962Z,97842.41
2022-08-17T10:27:41.206Z,97843.28
2022-08-17T10:30:10.140Z,97843.75
2022-08-17T10:32:59.897Z,97860.94
2022-08-17T10:35:52.692Z,97856.19
2022-08-17T10:38:47.912Z,97851.22
2022-08-17T10:41:30.948Z,97847.75
2022-08-17T10:44:39.682Z,97836.44
2022-08-17T10:46:57.129Z,97832.56
2022-08-17T10:49:29.537Z,97834.66
2022-08-17T10:51:58.682Z,97844.88
2022-08-17T10:54:25.268Z,97845.56
2022-08-17T10:56:54.296Z,97837.16
2022-08-17T10:59:36.289Z,97836.47
2022-08-17T11:02:27.495Z,97837.69
2022-08-17T11:05:06.352Z,97830.00
2022-08-17T11:07:58.642Z,97838.50
2022-08-17T11:10:42.272Z,97841.00
2022-08-17T11:13:24.518Z,97847.78
2022-08-17T11:16:26.402Z,97841.56
2022-08-17T11:19:22.516Z,97831.28
2022-08-17T11:22:21.930Z,97833.19
2022-08-17T11:24:53.123Z,97835.91
2022-08-17T11:27:31.683Z,97834.97
2022-08-17T11:30:05.363Z,97840.22
2022-08-17T11:32:34.069Z,97835.75
2022-08-17T11:35:12.087Z,97833.97
2022-08-17T11:37:45.660Z,97820.78
2022-08-17T11:40:24.113Z,97814.13
2022-08-17T11:42:59.200Z,97823.66
2022-08-17T11:45:42.083Z,97813.69
2022-08-17T11:48:47.189Z,97815.78
2022-08-17T11:51:33.309Z,97809.16
2022-08-17T11:57:00.098Z,97803.13
2022-08-17T11:59:46.872Z,97796.06
2022-08-17T12:02:35.345Z,97796.03
2022-08-17T12:05:17.503Z,97799.53
2022-08-17T12:07:51.917Z,97792.47
2022-08-17T12:10:30.238Z,97790.41
2022-08-17T12:12:57.645Z,97784.59
2022-08-17T12:15:37.370Z,97789.59
2022-08-17T12:18:04.416Z,97785.31
2022-08-17T12:20:38.207Z,97775.81
2022-08-17T12:23:17.664Z,97775.06
2022-08-17T12:26:04.497Z,97782.28
2022-08-17T12:28:35.346Z,97781.94
2022-08-17T12:31:07.085Z,97781.78
2022-08-17T12:33:37.124Z,97793.72
2022-08-17T12:36:07.591Z,97791.66
2022-08-17T12:38:37.300Z,97787.66
2022-08-17T12:41:22.896Z,97790.16
2022-08-17T12:44:02.286Z,97782.13
2022-08-17T12:46:33.627Z,97777.94
2022-08-17T12:49:19.752Z,97781.81
2022-08-17T12:51:47.778Z,97790.00
2022-08-17T12:54:26.510Z,97783.63
2022-08-17T12:56:53.787Z,97787.53
2022-08-17T12:59:29.622Z,97792.13
2022-08-17T13:01:57.480Z,97795.53
2022-08-17T13:04:24.522Z,97783.13
2022-08-17T13:06:59.874Z,97785.09
2022-08-17T13:09:36.082Z,97791.03
2022-08-17T13:12:07.491Z,97794.84
2022-08-17T13:14:35.170Z,97790.25
2022-08-17T13:17:08.377Z,97797.38
2022-08-17T13:19:49.271Z,97797.38
2022-08-17T13:22:16.827Z,97791.19
2022-08-17T13:24:55.135Z,97779.50
2022-08-17T13:27:25.750Z,97780.25
2022-08-17T13:29:57.551Z,97776.28
2022-08-17T13:32:36.692Z,97777.19
2022-08-17T13:35:39.929Z,97778.00
2022-08-17T13:38:11.857Z,97772.50
2022-08-17T13:40:38.533Z,97768.97
2022-08-17T13:43:05.481Z,97770.19
2022-08-17T13:45:41.316Z,97767.09
2022-08-17T13:48:08.885Z,97766.28
2022-08-17T13:50:42.862Z,97762.38
2022-08-17T13:53:27.055Z,97757.69
2022-08-17T13:55:58.159Z,97752.56
2022-08-17T13:58:29.173Z,97761.63
2022-08-17T14:00:56.361Z,97758.47
2022-08-17T14:03:24.427Z,97753.75
2022-08-17T14:05:52.779Z,97752.97
2022-08-17T14:08:20.821Z,97749.03
2022-08-17T14:11:01.954Z,97743.16
2022-08-17T14:13:32.263Z,97744.34
2022-08-17T14:15:58.850Z,97750.59
2022-08-17T14:18:35.516Z,97743.94
2022-08-17T14:21:12.487Z,97747.09
2022-08-17T14:23:39.340Z,97746.28
2022-08-17T14:26:06.091Z,97745.53
2022-08-17T14:28:33.086Z,97749.44
2022-08-17T14:31:03.096Z,97743.91
2022-08-17T14:33:29.801Z,97740.41
2022-08-17T14:35:57.608Z,97744.34
2022-08-17T14:38:24.746Z,97735.69
2022-08-17T14:40:51.995Z,97740.78
2022-08-17T14:43:18.959Z,97743.94
2022-08-17T14:45:45.616Z,97744.34
2022-08-17T14:48:12.372Z,97740.00
2022-08-17T14:50:41.804Z,97735.72
2022-08-17T14:53:11.264Z,97739.63
2022-08-17T14:55:40.010Z,97739.25
2022-08-17T14:58:09.780Z,97744.34
2022-08-17T15:00:37.380Z,97743.97
2022-08-17T15:03:07.618Z,97741.19
2022-08-17T15:05:37.803Z,97743.16
2022-08-17T15:08:05.862Z,97749.03
2022-08-17T15:10:32.698Z,97752.97
2022-08-17T15:13:00.490Z,97741.16
2022-08-17T15:15:28.638Z,97734.50
2022-08-17T15:17:55.438Z,97727.09
2022-08-17T15:20:27.970Z,97733.34
2022-08-17T15:22:57.135Z,97731.81
2022-08-17T15:25:25.504Z,97738.09
2022-08-17T15:27:52.697Z,97734.16
2022-08-17T15:30:19.866Z,97734.56
2022-08-17T15:32:54.348Z,97722.03
2022-08-17T15:35:27.548Z,97731.41
2022-08-17T15:38:09.784Z,97726.72
2022-08-17T15:40:42.227Z,97718.88
2022-08-17T15:43:15.158Z,97711.41
2022-08-17T15:45:42.086Z,97712.19
2022-08-17T15:48:09.211Z,97720.44
2022-08-17T15:50:36.261Z,97718.47
2022-08-17T15:53:04.920Z,97713.00
2022-08-17T15:55:32.698Z,97705.53
2022-08-17T15:58:00.283Z,97707.09
2022-08-17T16:00:28.621Z,97700.81
2022-08-17T16:03:46.438Z,97705.53
2022-08-17T16:05:44.568Z,97696.50
2022-08-17T16:08:17.115Z,97703.91
2022-08-17T16:10:46.888Z,97704.69
2022-08-17T16:13:17.706Z,97698.00
2022-08-17T16:15:57.055Z,97701.06
2022-08-17T16:18:37.011Z,97690.88
2022-08-17T16:21:42.480Z,97696.69
2022-08-17T16:24:13.423Z,97693.16
2022-08-17T16:26:43.689Z,97691.63
2022-08-17T16:29:10.617Z,97692.53
2022-08-17T16:31:37.904Z,97695.59
2022-08-17T16:34:58.463Z,97694.03
2022-08-17T16:37:25.135Z,97692.03
2022-08-17T16:39:55.196Z,97693.19
2022-08-17T16:42:25.014Z,97693.53
2022-08-17T16:47:42.863Z,97694.53
2022-08-17T16:50:34.826Z,97705.41
2022-08-17T16:53:14.935Z,97703.75
2022-08-17T16:55:44.345Z,97708.38
2022-08-17T16:58:19.263Z,97707.63
2022-08-17T17:00:51.869Z,97702.41
2022-08-17T17:03:22.138Z,97702.31
2022-08-17T17:06:01.469Z,97709.25
2022-08-17T17:08:40.694Z,97714.66
2022-08-17T17:11:18.040Z,97711.03
2022-08-17T17:13:50.968Z,97710.56
2022-08-17T17:16:23.964Z,97713.13
2022-08-17T17:19:13.401Z,97709.06
2022-08-17T17:21:58.712Z,97713.66
2022-08-17T17:24:57.028Z,97711.63
2022-08-17T17:27:30.305Z,97718.28
2022-08-17T17:29:56.966Z,97713.34
2022-08-17T17:32:51.022Z,97715.94
2022-08-17T17:35:31.874Z,97717.78
2022-08-17T17:38:03.350Z,97727.50
2022-08-17T17:40:40.417Z,97721.03
2022-08-17T17:43:37.029Z,97717.59
2022-08-17T17:46:26.573Z,97713.41
2022-08-17T17:48:50.834Z,97719.97
2022-08-17T17:52:08.500Z,97718.69
2022-08-17T17:54:48.263Z,97714.69
2022-08-17T17:57:45.566Z,97721.06
2022-08-17T18:00:18.712Z,97726.94
2022-08-17T18:02:47.423Z,97717.28
2022-08-17T18:05:34.371Z,97719.31
2022-08-17T18:08:40.943Z,97724.63
2022-08-17T18:11:24.044Z,97719.16
2022-08-17T18:14:04.487Z,97718.50
2022-08-17T18:16:32.955Z,97723.59
2022-08-17T18:19:01.366Z,97716.91
2022-08-17T18:21:38.247Z,97720.09
2022-08-17T18:24:10.567Z,97718.09
2022-08-17T18:26:49.537Z,97719.38
2022-08-17T18:29:31.915Z,97715.63
2022-08-17T18:32:29.076Z,97728.34
2022-08-17T18:35:01.813Z,97723.53
2022-08-17T18:37:31.025Z,97724.56
2022-08-17T18:39:57.765Z,97725.41
2022-08-17T18:42:27.136Z,97719.88
2022-08-17T18:44:55.655Z,97722.06
2022-08-17T18:47:28.022Z,97714.69
2022-08-17T18:49:58.440Z,97715.28
2022-08-17T18:52:28.085Z,97707.97
2022-08-17T18:55:15.347Z,97711.25
2022-08-17T18:57:45.660Z,97707.06
2022-08-17T19:00:13.290Z,97702.91
2022-08-17T19:02:57.177Z,97703.28
2022-08-17T19:05:36.673Z,97708.38
2022-08-17T19:08:24.746Z,97699.81
2022-08-17T19:10:59.389Z,97697.69
2022-08-17T19:13:31.146Z,97706.50
2022-08-17T19:16:15.137Z,97703.81
2022-08-17T19:19:01.981Z,97696.78
2022-08-17T19:21:48.208Z,97703.91
2022-08-17T19:24:25.098Z,97700.59
2022-08-17T19:26:58.788Z,97709.53
2022-08-17T19:29:36.427Z,97707.72
2022-08-17T19:32:04.295Z,97707.72
2022-08-17T19:34:34.763Z,97713.03
2022-08-17T19:37:16.784Z,97704.69
2022-08-17T19:39:53.342Z,97708.47
2022-08-17T19:42:37.200Z,97706.19
2022-08-17T19:45:28.590Z,97708.53
2022-08-17T19:48:12.887Z,97711.59
2022-08-17T19:50:55.422Z,97697.44
2022-08-17T19:53:23.439Z,97695.09
2022-08-17T19:55:51.455Z,97689.66
2022-08-17T19:58:52.588Z,97691.53
2022-08-17T20:01:34.814Z,97702.34
2022-08-17T20:04:21.109Z,97706.75
2022-08-17T20:06:50.205Z,97727.22
2022-08-17T20:09:39.224Z,97731.13
2022-08-17T20:12:11.222Z,97750.47
2022-08-17T20:14:53.629Z,97750.78
2022-08-17T20:17:28.305Z,97751.41
2022-08-17T20:20:06.497Z,97754.97
2022-08-17T20:22:52.514Z,97757.72
2022-08-17T20:25:40.788Z,97754.53
2022-08-17T20:28:28.837Z,97751.19
2022-08-17T20:30:59.603Z,97763.31
2022-08-17T20:33:31.606Z,97774.03
2022-08-17T20:36:04.959Z,97783.47
2022-08-17T20:38:48.940Z,97780.47
2022-08-17T20:41:22.484Z,97772.72
2022-08-17T20:44:03.065Z,97751.56
2022-08-17T20:46:46.026Z,97753.50
2022-08-17T20:49:19.962Z,97765.22
2022-08-17T20:52:08.981Z,97773.41
2022-08-17T20:54:53.179Z,97771.50
2022-08-17T20:57:35.256Z,97764.78
2022-08-17T21:00:15.612Z,97765.59
2022-08-17T21:02:45.931Z,97761.63
2022-08-17T21:05:42.971Z,97763.19
2022-08-17T21:08:19.564Z,97755.41
2022-08-17T21:10:47.169Z,97762.09
2022-08-17T21:13:15.498Z,97753.06
2022-08-17T21:15:42.362Z,97748.78
2022-08-17T21:18:25.186Z,97745.44
2022-08-17T21:21:18.989Z,97747.03
2022-08-17T21:24:00.992Z,97743.50
2022-08-17T21:26:59.841Z,97745.94
2022-08-17T21:30:01.258Z,97729.41
2022-08-17T21:32:37.832Z,97731.81
2022-08-17T21:35:16.636Z,97728.00
2022-08-17T21:37:46.541Z,97718.31
2022-08-17T21:40:21.569Z,97712.00
2022-08-17T21:42:55.527Z,97703.59
2022-08-17T21:45:49.224Z,97698.38
2022-08-17T21:48:26.676Z,97694.91
2022-08-17T21:51:13.493Z,97699.63
2022-08-17T21:54:01.444Z,97702.22
2022-08-17T21:56:34.409Z,97706.66
2022-08-17T21:59:07.644Z,97708.84
2022-08-17T22:01:40.383Z,97710.44
2022-08-17T22:04:20.186Z,97706.00
2022-08-17T22:06:56.783Z,97703.47
2022-08-17T22:09:31.649Z,97694.09
2022-08-17T22:12:10.201Z,97691.53
2022-08-17T22:14:53.424Z,97700.28
2022-08-17T22:17:24.600Z,97696.47
2022-08-17T22:20:01.415Z,97706.94
2022-08-17T22:22:32.295Z,97707.72
2022-08-17T22:25:04.523Z,97695.34
2022-08-17T22:27:56.640Z,97684.25
2022-08-17T22:30:40.033Z,97683.28
2022-08-17T22:33:29.001Z,97689.28
2022-08-17T22:36:11.808Z,97683.91
2022-08-17T22:38:40.537Z,97681.38
2022-08-17T22:41:23.584Z,97683.28
2022-08-17T22:43:50.760Z,97680.09
2022-08-17T22:46:23.875Z,97675.34
2022-08-17T22:48:56.791Z,97664.88
2022-08-17T22:51:28.347Z,97658.25
2022-08-17T22:54:16.544Z,97655.22
2022-08-17T22:57:18.940Z,97651.13
2022-08-17T22:59:50.549Z,97651.13
2022-08-17T23:02:28.014Z,97647.47
2022-08-17T23:05:15.857Z,97635.25
2022-08-17T23:07:45.476Z,97645.06
2022-08-17T23:10:13.511Z,97645.09
2022-08-17T23:12:41.325Z,97645.25
2022-08-17T23:15:14.337Z,97643.81
2022-08-17T23:17:42.068Z,97644.59
2022-08-17T23:20:13.084Z,97647.47
2022-08-17T23:22:52.039Z,97647.94
2022-08-17T23:25:26.403Z,97646.66
2022-08-17T23:27:53.355Z,97646.81
2022-08-17T23:30:20.422Z,97646.97
2022-08-17T23:32:53.761Z,97649.69
2022-08-17T23:35:40.114Z,97652.06
2022-08-17T23:38:10.090Z,97652.38
2022-08-17T23:40:37.864Z,97663.00
2022-08-17T23:43:24.106Z,97665.53
2022-08-17T23:45:54.061Z,97668.22
2022-08-17T23:48:32.681Z,97675.66
2022-08-17T23:51:05.967Z,97673.59
2022-08-17T23:53:36.717Z,97667.72
2022-08-17T23:56:09.723Z,97668.38
2022-08-17T23:58:38.576Z,97669.63
